Biola, California
Current Conditions -  °F | °C
As of 8:44 AM on Sunday 21 Dec 2014 (Local Time) from KMAE Reporting Station
Haze Haze  
Wind Chill: 50°   Ceiling: 200
Heat Index: 50°   Visibility: 1.5mi
Dew Point: 48°   Wind: 3mph
Humidity: 93%   Direction: 110°ESE
Pressure: 30.3"   Gusts: NA
Location:  36.8°N, 120.02°W
Report Text: KMAE 211644Z AUTO 11003KT 1 1/2SM BR OVC002 10/09 A3030 RMK AO2 T01000089
Loading
Personal Weather Stations






























Interactive Weather Map New forecast layout! Learn more

10-Day Weather Forecast

Advertisements
Track Severe Weather on mobile